createdAt,value
2022-10-10T00:00:17.702Z,1.7
2022-10-10T00:01:26.573Z,1.8
2022-10-10T00:02:36.213Z,1.8
2022-10-10T00:03:44.921Z,1.5
2022-10-10T00:04:54.594Z,1.1
2022-10-10T00:06:04.343Z,1.6
2022-10-10T00:07:12.166Z,1.4
2022-10-10T00:08:21.857Z,1.6
2022-10-10T00:09:29.595Z,1.7
2022-10-10T00:10:38.295Z,1.6
2022-10-10T00:11:47.984Z,2.7
2022-10-10T00:12:56.705Z,2.2
2022-10-10T00:14:06.437Z,2
2022-10-10T00:15:16.131Z,2.8
2022-10-10T00:16:24.809Z,1.7
2022-10-10T00:17:34.529Z,1.9
2022-10-10T00:18:42.239Z,1.5
2022-10-10T00:19:51.947Z,1.1
2022-10-10T00:21:01.703Z,2
2022-10-10T00:22:10.391Z,1.5
2022-10-10T00:23:20.080Z,1.7
2022-10-10T00:24:28.847Z,1.8
2022-10-10T00:25:37.539Z,1.8
2022-10-10T00:26:47.271Z,1.8
2022-10-10T00:27:56.959Z,1.7
2022-10-10T00:29:05.666Z,1.5
2022-10-10T00:30:15.411Z,2
2022-10-10T00:31:25.127Z,2
2022-10-10T00:32:34.792Z,1.8
2022-10-10T00:33:43.778Z,2.1
2022-10-10T00:34:52.453Z,1.4
2022-10-10T00:36:02.188Z,1.8
2022-10-10T00:37:10.887Z,1.7
2022-10-10T00:38:19.559Z,1.5
2022-10-10T00:39:29.268Z,1.7
2022-10-10T00:40:36.937Z,1.5
2022-10-10T00:41:46.673Z,1.4
2022-10-10T00:42:55.383Z,1.5
2022-10-10T00:44:05.076Z,1.7
2022-10-10T00:45:13.788Z,2.2
2022-10-10T00:46:22.467Z,1.4
2022-10-10T00:47:31.192Z,1.5
2022-10-10T00:48:40.870Z,1.2
2022-10-10T00:49:48.557Z,1.7
2022-10-10T00:50:58.268Z,1.5
2022-10-10T00:52:07.973Z,1.5
2022-10-10T00:53:16.698Z,1.4
2022-10-10T00:54:25.388Z,1.3
2022-10-10T00:55:34.058Z,1.5
2022-10-10T00:56:42.739Z,1.2
2022-10-10T00:57:52.421Z,1.2
2022-10-10T00:59:00.130Z,1.1
2022-10-10T01:00:09.836Z,1.4
2022-10-10T01:01:18.578Z,2.1
2022-10-10T01:02:28.214Z,4.4
2022-10-10T01:03:37.025Z,1.5
2022-10-10T01:04:46.708Z,1.5
2022-10-10T01:05:56.410Z,1.2
2022-10-10T01:07:04.125Z,1.4
2022-10-10T01:08:12.796Z,1.5
2022-10-10T01:09:22.552Z,1.3
2022-10-10T01:10:31.262Z,1.8
2022-10-10T01:11:40.973Z,1
2022-10-10T01:12:50.948Z,1.7
2022-10-10T01:13:58.442Z,1.5
2022-10-10T01:15:08.209Z,1.6
2022-10-10T01:16:17.935Z,1.8
2022-10-10T01:17:26.716Z,1.6
2022-10-10T01:18:36.438Z,1.7
2022-10-10T01:19:44.178Z,1.8
2022-10-10T01:20:53.871Z,1.8
2022-10-10T01:22:03.577Z,1.7
2022-10-10T01:23:12.243Z,2.2
2022-10-10T01:24:21.922Z,2.1
2022-10-10T01:25:30.721Z,2.1
2022-10-10T01:26:40.456Z,1.7
2022-10-10T01:27:50.273Z,1.3
2022-10-10T01:28:58.972Z,1.4
2022-10-10T01:30:08.763Z,1.3
2022-10-10T01:31:17.432Z,1.4
2022-10-10T01:32:27.129Z,1.3
2022-10-10T01:33:37.914Z,1.2
2022-10-10T01:34:46.597Z,1.4
2022-10-10T01:35:56.274Z,1.4
2022-10-10T01:37:05.988Z,1.4
2022-10-10T01:38:15.671Z,0.9
2022-10-10T01:39:25.370Z,1.3
2022-10-10T01:40:34.049Z,1.4
2022-10-10T01:41:43.751Z,0.7
2022-10-10T01:42:53.709Z,1.3
2022-10-10T01:44:02.211Z,0.7
2022-10-10T01:45:10.973Z,1.1
2022-10-10T01:46:20.642Z,1.1
2022-10-10T01:47:30.326Z,1
2022-10-10T01:48:40.031Z,0.9
2022-10-10T01:49:48.725Z,0.9
2022-10-10T01:50:56.417Z,1.2
2022-10-10T01:52:06.169Z,1.4
2022-10-10T01:53:13.811Z,1.5
2022-10-10T01:54:23.535Z,1.2
2022-10-10T01:55:33.254Z,1.1
2022-10-10T01:56:40.960Z,1
2022-10-10T01:57:50.656Z,1.1
2022-10-10T01:58:59.353Z,1.2
2022-10-10T02:00:08.019Z,1.3
2022-10-10T02:01:17.760Z,0.9
2022-10-10T02:02:25.529Z,1.3
2022-10-10T02:03:35.219Z,1.3
2022-10-10T02:04:44.887Z,1.1
2022-10-10T02:05:52.616Z,1.3
2022-10-10T02:07:02.312Z,1
2022-10-10T02:08:12.032Z,1.1
2022-10-10T02:09:20.710Z,1.3
2022-10-10T02:10:30.409Z,0.9
2022-10-10T02:11:39.128Z,1.4
2022-10-10T02:12:48.089Z,1.4
2022-10-10T02:13:57.520Z,1.1
2022-10-10T02:15:06.215Z,0.8
2022-10-10T02:16:15.904Z,1
2022-10-10T02:17:24.605Z,1.2
2022-10-10T02:18:32.287Z,1.1
2022-10-10T02:19:42.014Z,1
2022-10-10T02:20:49.718Z,1
2022-10-10T02:21:57.417Z,1
2022-10-10T02:23:07.089Z,0.9
2022-10-10T02:24:15.782Z,0.9
2022-10-10T02:25:25.523Z,1
2022-10-10T02:26:35.267Z,0.9
2022-10-10T02:27:42.950Z,1
2022-10-10T02:28:52.641Z,1
2022-10-10T02:30:01.368Z,0.8
2022-10-10T02:31:10.076Z,0.9
2022-10-10T02:32:19.798Z,0.8
2022-10-10T02:33:28.488Z,0.9
2022-10-10T02:34:38.208Z,0.9
2022-10-10T02:35:47.873Z,1.1
2022-10-10T02:36:55.599Z,0.9
2022-10-10T02:38:05.293Z,1
2022-10-10T02:39:12.960Z,0.9
2022-10-10T02:40:21.697Z,0.9
2022-10-10T02:41:31.451Z,1
2022-10-10T02:42:39.188Z,0.6
2022-10-10T02:43:48.865Z,0.9
2022-10-10T02:44:58.545Z,0.9
2022-10-10T02:46:06.255Z,0.9
2022-10-10T02:47:14.949Z,1.3
2022-10-10T02:48:23.662Z,1.1
2022-10-10T02:49:32.430Z,1
2022-10-10T02:50:42.202Z,1.1
2022-10-10T02:51:51.921Z,0.9
2022-10-10T02:53:01.686Z,1
2022-10-10T02:54:10.414Z,1
2022-10-10T02:55:18.100Z,1.1
2022-10-10T02:56:27.803Z,1
2022-10-10T02:57:35.538Z,1.1
2022-10-10T02:58:45.244Z,1.1
2022-10-10T02:59:54.952Z,1.2
2022-10-10T03:01:03.689Z,1
2022-10-10T03:02:13.310Z,1.2
2022-10-10T03:03:21.040Z,1
2022-10-10T03:04:30.802Z,1.1
2022-10-10T03:05:39.564Z,1
2022-10-10T03:06:49.260Z,1.4
2022-10-10T03:07:58.957Z,0.9
2022-10-10T03:09:06.622Z,1.1
2022-10-10T03:10:16.371Z,1.1
2022-10-10T03:11:26.137Z,1
2022-10-10T03:12:32.849Z,1.2
2022-10-10T03:13:42.544Z,0.9
2022-10-10T03:14:51.228Z,1.7
2022-10-10T03:16:00.902Z,1.2
2022-10-10T03:17:10.678Z,1.1
2022-10-10T03:18:19.374Z,1.3
2022-10-10T03:19:28.074Z,0.9
2022-10-10T03:20:37.755Z,0.9
2022-10-10T03:21:45.489Z,1
2022-10-10T03:22:55.241Z,1.1
2022-10-10T03:24:04.968Z,0.8
2022-10-10T03:25:12.658Z,0.9
2022-10-10T03:26:22.410Z,1.1
2022-10-10T03:27:31.245Z,0.9
2022-10-10T03:28:41.061Z,1.1
2022-10-10T03:29:49.671Z,1.1
2022-10-10T03:30:57.352Z,1.4
2022-10-10T03:32:10.835Z,1
2022-10-10T03:33:15.779Z,1.3
2022-10-10T03:34:24.524Z,1.1
2022-10-10T03:35:34.215Z,1
2022-10-10T03:36:42.937Z,0.8
2022-10-10T03:37:52.651Z,0.8
2022-10-10T03:39:02.484Z,1.3
2022-10-10T03:40:12.276Z,0.8
2022-10-10T03:41:22.018Z,1.1
2022-10-10T03:42:31.752Z,0.8
2022-10-10T03:43:39.384Z,1.1
2022-10-10T03:44:49.101Z,1
2022-10-10T03:45:57.789Z,0.7
2022-10-10T03:47:06.461Z,0.7
2022-10-10T03:48:16.138Z,1.1
2022-10-10T03:49:24.816Z,1.1
2022-10-10T03:50:34.537Z,0.9
2022-10-10T03:51:43.238Z,1.2
2022-10-10T03:52:51.111Z,1
2022-10-10T03:54:00.610Z,0.9
2022-10-10T03:55:09.701Z,1
2022-10-10T03:56:19.467Z,1.1
2022-10-10T03:57:29.172Z,1
2022-10-10T03:58:36.879Z,0.9
2022-10-10T03:59:47.491Z,1
2022-10-10T04:00:56.351Z,1
2022-10-10T04:02:04.912Z,0.9
2022-10-10T04:03:14.708Z,0.7
2022-10-10T04:04:22.408Z,1.2
2022-10-10T04:05:31.064Z,0.9
2022-10-10T04:06:40.763Z,0.7
2022-10-10T04:07:49.488Z,0.7
2022-10-10T04:08:59.207Z,0.9
2022-10-10T04:10:07.896Z,0.7
2022-10-10T04:11:17.683Z,0.8
2022-10-10T04:12:27.531Z,0.8
2022-10-10T04:13:35.261Z,1.1
2022-10-10T04:14:43.013Z,0.9
2022-10-10T04:15:52.688Z,1.1
2022-10-10T04:17:03.379Z,1.1
2022-10-10T04:18:13.083Z,1.1
2022-10-10T04:19:23.506Z,1.2
2022-10-10T04:20:32.247Z,1
2022-10-10T04:21:41.960Z,0.9
2022-10-10T04:22:51.951Z,1.3
2022-10-10T04:24:01.370Z,1.1
2022-10-10T04:25:11.043Z,1.1
2022-10-10T04:26:19.791Z,0.8
2022-10-10T04:27:29.452Z,1.3
2022-10-10T04:28:39.170Z,1.2
2022-10-10T04:29:46.800Z,1.4
2022-10-10T04:30:55.440Z,1.1
2022-10-10T04:32:05.165Z,0.9
2022-10-10T04:33:13.845Z,0.9
2022-10-10T04:34:23.527Z,1
2022-10-10T04:35:31.207Z,0.8
2022-10-10T04:36:40.915Z,1.1
2022-10-10T04:37:49.644Z,0.6
2022-10-10T04:38:58.315Z,0.8
2022-10-10T04:40:07.085Z,0.8
2022-10-10T04:41:14.774Z,0.9
2022-10-10T04:42:23.565Z,0.8
2022-10-10T04:43:33.253Z,1
2022-10-10T04:44:41.930Z,0.5
2022-10-10T04:45:51.633Z,0.8
2022-10-10T04:47:00.282Z,0.7
2022-10-10T04:48:08.948Z,0.7
2022-10-10T04:49:18.683Z,0.8
2022-10-10T04:50:27.348Z,0.7
2022-10-10T04:51:36.028Z,1
2022-10-10T04:52:45.704Z,0.6
2022-10-10T04:53:55.383Z,0.7
2022-10-10T04:55:05.092Z,0.7
2022-10-10T04:56:13.758Z,0.9
2022-10-10T04:57:22.443Z,0.8
2022-10-10T04:58:32.132Z,0.9
2022-10-10T04:59:41.853Z,0.9
2022-10-10T05:00:50.555Z,1.1
2022-10-10T05:02:01.650Z,1.1
2022-10-10T05:03:07.993Z,0.9
2022-10-10T05:04:17.661Z,0.9
2022-10-10T05:05:25.331Z,1.2
2022-10-10T05:06:35.104Z,0.7
2022-10-10T05:07:43.833Z,0.8
2022-10-10T05:08:51.625Z,0.9
2022-10-10T05:10:01.316Z,1
2022-10-10T05:11:10.107Z,1.1
2022-10-10T05:12:18.821Z,0.9
2022-10-10T05:13:28.518Z,0.8
2022-10-10T05:14:36.213Z,0.7
2022-10-10T05:15:45.897Z,0.8
2022-10-10T05:16:55.576Z,1.2
2022-10-10T05:18:04.314Z,0.9
2022-10-10T05:19:13.974Z,1.1
2022-10-10T05:20:21.685Z,1.1
2022-10-10T05:21:31.369Z,1
2022-10-10T05:22:41.063Z,1
2022-10-10T05:23:48.750Z,0.6
2022-10-10T05:24:58.450Z,0.8
2022-10-10T05:26:07.175Z,0.9
2022-10-10T05:27:15.839Z,0.7
2022-10-10T05:28:25.639Z,0.9
2022-10-10T05:29:33.265Z,0.8
2022-10-10T05:30:41.959Z,0.7
2022-10-10T05:31:51.679Z,0.9
2022-10-10T05:33:00.479Z,0.7
2022-10-10T05:34:09.300Z,1.1
2022-10-10T05:35:18.983Z,0.9
2022-10-10T05:36:27.695Z,0.7
2022-10-10T05:37:37.421Z,0.9
2022-10-10T05:38:45.115Z,1
2022-10-10T05:39:54.979Z,0.9
2022-10-10T05:41:04.594Z,0.7
2022-10-10T05:42:13.269Z,0.7
2022-10-10T05:43:22.966Z,1
2022-10-10T05:44:31.689Z,0.9
2022-10-10T05:45:40.415Z,0.7
2022-10-10T05:46:50.182Z,0.9
2022-10-10T05:47:57.849Z,0.8
2022-10-10T05:49:07.574Z,1.1
2022-10-10T05:50:16.295Z,1
2022-10-10T05:51:24.970Z,1
2022-10-10T05:52:34.703Z,1.2
2022-10-10T05:53:43.387Z,0.9
2022-10-10T05:54:52.100Z,0.9
2022-10-10T05:56:01.864Z,0.8
2022-10-10T05:57:14.009Z,0.9
2022-10-10T05:58:21.427Z,1.1
2022-10-10T05:59:31.100Z,1
2022-10-10T06:00:39.825Z,0.9
2022-10-10T06:01:49.515Z,0.7
2022-10-10T06:02:58.493Z,0.9
2022-10-10T06:04:08.092Z,0.8
2022-10-10T06:05:17.783Z,0.8
2022-10-10T06:06:26.486Z,0.8
2022-10-10T06:07:59.766Z,0.8
2022-10-10T06:08:46.781Z,0.8
2022-10-10T06:09:54.461Z,0.9
2022-10-10T06:11:05.203Z,1
2022-10-10T06:12:13.890Z,0.7
2022-10-10T06:13:24.558Z,0.9
2022-10-10T06:14:33.222Z,1
2022-10-10T06:15:40.925Z,1
2022-10-10T06:16:49.688Z,0.8
2022-10-10T06:17:59.400Z,0.8
2022-10-10T06:19:11.400Z,0.6
2022-10-10T06:20:18.970Z,1.1
2022-10-10T06:21:28.690Z,0.8
2022-10-10T06:22:37.361Z,1
2022-10-10T06:23:47.057Z,0.8
2022-10-10T06:24:56.725Z,1.1
2022-10-10T06:26:06.441Z,1
2022-10-10T06:27:16.174Z,0.9
2022-10-10T06:28:23.899Z,1
2022-10-10T06:29:33.517Z,0.8
2022-10-10T06:30:43.255Z,0.8
2022-10-10T06:31:52.019Z,0.6
2022-10-10T06:33:01.888Z,1
2022-10-10T06:34:10.414Z,0.9
2022-10-10T06:35:19.127Z,0.8
2022-10-10T06:36:28.854Z,0.9
2022-10-10T06:37:37.572Z,1
2022-10-10T06:38:46.358Z,0.8
2022-10-10T06:39:56.060Z,1
2022-10-10T06:41:04.760Z,0.8
2022-10-10T06:42:14.438Z,1.4
2022-10-10T06:43:23.106Z,1.2
2022-10-10T06:44:32.911Z,1.1
2022-10-10T06:45:42.636Z,1.3
2022-10-10T06:46:50.334Z,1.3
2022-10-10T06:48:00.068Z,1.1
2022-10-10T06:49:08.744Z,1.3
2022-10-10T06:50:18.474Z,1.2
2022-10-10T06:51:28.204Z,0.9
2022-10-10T06:52:36.945Z,0.8
2022-10-10T06:53:45.690Z,0.7
2022-10-10T06:54:55.380Z,0.8
2022-10-10T06:56:05.101Z,1
2022-10-10T06:57:14.785Z,1
2022-10-10T06:58:22.522Z,1
2022-10-10T06:59:32.220Z,1.1
2022-10-10T07:00:41.888Z,0.9
2022-10-10T07:01:49.775Z,0.8
2022-10-10T07:02:59.432Z,1.6
2022-10-10T07:04:08.134Z,1.5
2022-10-10T07:05:16.878Z,1.2
2022-10-10T07:06:26.592Z,1.6
2022-10-10T07:07:35.316Z,1.5
2022-10-10T07:08:45.021Z,1.1
2022-10-10T07:09:54.781Z,1.2
2022-10-10T07:11:03.450Z,1.4
2022-10-10T07:12:13.195Z,0.9
2022-10-10T07:13:21.926Z,0.7
2022-10-10T07:14:30.652Z,0.8
2022-10-10T07:15:40.374Z,0.7
2022-10-10T07:16:48.062Z,0.7
2022-10-10T07:17:57.737Z,0.6
2022-10-10T07:19:07.459Z,0.9
2022-10-10T07:20:15.129Z,0.6
2022-10-10T07:21:24.815Z,0.9
2022-10-10T07:22:33.559Z,0.5
2022-10-10T07:23:42.251Z,0.7
2022-10-10T07:24:51.973Z,1
2022-10-10T07:26:00.768Z,0.9
2022-10-10T07:27:10.413Z,0.9
2022-10-10T07:28:20.156Z,0.5
2022-10-10T07:29:28.814Z,0.7
2022-10-10T07:30:39.530Z,0.7
2022-10-10T07:31:48.245Z,0.7
2022-10-10T07:32:57.940Z,0.5
2022-10-10T07:34:07.637Z,0.6
2022-10-10T07:35:16.348Z,0.7
2022-10-10T07:36:26.122Z,0.6
2022-10-10T07:37:34.865Z,0.4
2022-10-10T07:38:42.534Z,0.8
2022-10-10T07:39:52.224Z,0.6
2022-10-10T07:40:59.920Z,0.6
2022-10-10T07:42:08.681Z,0.6
2022-10-10T07:43:18.364Z,0.8
2022-10-10T07:44:29.330Z,0.5
2022-10-10T07:45:37.788Z,0.8
2022-10-10T07:46:47.563Z,0.7
2022-10-10T07:47:56.383Z,0.6
2022-10-10T07:49:06.124Z,0.5
2022-10-10T07:50:15.814Z,0.7
2022-10-10T07:51:24.529Z,0.6
2022-10-10T07:52:34.263Z,0.6
2022-10-10T07:53:43.042Z,0.7
2022-10-10T07:54:52.773Z,0.5
2022-10-10T07:56:02.613Z,0.6
2022-10-10T07:57:12.565Z,0.7
2022-10-10T07:58:22.252Z,0.5
2022-10-10T07:59:30.036Z,0.4
2022-10-10T08:00:38.761Z,0.7
2022-10-10T08:01:48.599Z,0.5
2022-10-10T08:02:57.256Z,0.9
2022-10-10T08:04:06.965Z,0.6
2022-10-10T08:05:16.694Z,0.7
2022-10-10T08:06:26.362Z,0.5
2022-10-10T08:07:36.111Z,0.5
2022-10-10T08:08:51.108Z,0.8
2022-10-10T08:09:55.507Z,0.7
2022-10-10T08:11:05.216Z,0.7
2022-10-10T08:12:13.911Z,0.4
2022-10-10T08:13:23.646Z,0.7
2022-10-10T08:14:32.344Z,0.7
2022-10-10T08:15:42.031Z,0.4
2022-10-10T08:16:51.733Z,0.5
2022-10-10T08:17:59.415Z,0.4
2022-10-10T08:19:09.105Z,0.7
2022-10-10T08:20:18.814Z,0.5
2022-10-10T08:21:28.563Z,0.6
2022-10-10T08:22:38.265Z,0.6
2022-10-10T08:23:47.975Z,0.4
2022-10-10T08:24:55.659Z,0.5
2022-10-10T08:26:05.362Z,0.5
2022-10-10T08:27:14.096Z,0.7
2022-10-10T08:28:22.855Z,0.5
2022-10-10T08:29:32.554Z,0.5
2022-10-10T08:30:40.214Z,0.2
2022-10-10T08:31:50.896Z,0.3
2022-10-10T08:33:00.597Z,0.4
2022-10-10T08:34:08.521Z,0.6
2022-10-10T08:35:18.253Z,0.5
2022-10-10T08:36:26.949Z,0.3
2022-10-10T08:37:37.546Z,0.5
2022-10-10T08:38:46.314Z,0.7
2022-10-10T08:39:55.053Z,0.6
2022-10-10T08:41:03.807Z,0.3
2022-10-10T08:42:12.511Z,0.5
2022-10-10T08:43:21.208Z,0.2
2022-10-10T08:44:30.948Z,0.6
2022-10-10T08:45:39.719Z,0.3
2022-10-10T08:46:48.454Z,0.4
2022-10-10T08:47:58.170Z,0.4
2022-10-10T08:49:07.729Z,0.2
2022-10-10T08:50:16.569Z,0.4
2022-10-10T08:51:25.351Z,0.2
2022-10-10T08:52:33.051Z,0.4
2022-10-10T08:53:43.730Z,0.1
2022-10-10T08:54:57.538Z,0.3
2022-10-10T08:56:04.119Z,0.5
2022-10-10T08:57:12.827Z,0.4
2022-10-10T08:58:22.538Z,0.2
2022-10-10T08:59:32.265Z,0.2
2022-10-10T09:00:42.087Z,0.3
2022-10-10T09:02:17.445Z,0.1
2022-10-10T09:03:02.391Z,0.4
2022-10-10T09:04:11.139Z,0.3
2022-10-10T09:05:20.794Z,0.2
2022-10-10T09:06:28.480Z,0.2
2022-10-10T09:07:37.203Z,0.3
2022-10-10T09:08:47.069Z,0.2
2022-10-10T09:09:54.799Z,0.4
2022-10-10T09:11:04.611Z,0.3
2022-10-10T09:12:13.244Z,0.5
2022-10-10T09:13:22.039Z,0.4
2022-10-10T09:14:31.828Z,0.2
2022-10-10T09:15:39.561Z,0.2
2022-10-10T09:16:49.296Z,0.4
2022-10-10T09:17:58.934Z,0.2
2022-10-10T09:19:07.629Z,0.4
2022-10-10T09:20:17.335Z,0.2
2022-10-10T09:21:26.006Z,0.4
2022-10-10T09:22:34.704Z,0.3
2022-10-10T09:23:43.425Z,0.4
2022-10-10T09:24:52.129Z,0.2
2022-10-10T09:26:01.848Z,0.3
2022-10-10T09:27:11.556Z,0.2
2022-10-10T09:28:19.334Z,0.2
2022-10-10T09:29:28.971Z,0.1
2022-10-10T09:30:37.654Z,0.4
2022-10-10T09:31:45.360Z,0.1
2022-10-10T09:32:55.065Z,0.2
2022-10-10T09:34:02.749Z,0.2
2022-10-10T09:35:10.447Z,0.1
2022-10-10T09:36:20.164Z,0.2
2022-10-10T09:37:46.120Z,0.1
2022-10-10T09:38:40.598Z,0.2
2022-10-10T09:39:49.319Z,0.2
2022-10-10T09:40:59.330Z,0.4
2022-10-10T09:42:08.760Z,0.1
2022-10-10T09:43:17.491Z,0.2
2022-10-10T09:44:25.252Z,0.1
2022-10-10T09:45:34.988Z,0
2022-10-10T09:46:42.741Z,0.4
2022-10-10T09:47:53.443Z,0.3
2022-10-10T09:49:03.323Z,0.1
2022-10-10T09:50:11.910Z,0.3
2022-10-10T09:51:21.616Z,0.4
2022-10-10T09:52:30.308Z,0.2
2022-10-10T09:53:38.027Z,0.4
2022-10-10T09:54:47.826Z,0.1
2022-10-10T09:55:55.687Z,0.1
2022-10-10T09:57:05.375Z,0
2022-10-10T09:58:15.056Z,0.3
2022-10-10T09:59:22.800Z,0.3
2022-10-10T10:00:32.527Z,0.3
2022-10-10T10:01:40.289Z,0.2
2022-10-10T10:02:48.928Z,0.3
2022-10-10T10:04:06.893Z,0.2
2022-10-10T10:05:09.357Z,0.6
2022-10-10T10:06:19.102Z,0.2
2022-10-10T10:07:27.727Z,0.3
2022-10-10T10:08:36.459Z,0.3
2022-10-10T10:09:46.215Z,0.1
2022-10-10T10:10:54.968Z,0.2
2022-10-10T10:12:03.786Z,0.1
2022-10-10T10:13:13.677Z,0.3
2022-10-10T10:14:21.390Z,0.3
2022-10-10T10:15:31.125Z,0.2
2022-10-10T10:16:39.808Z,0.4
2022-10-10T10:17:48.517Z,0.2
2022-10-10T10:18:58.222Z,0.1
2022-10-10T10:20:10.095Z,0.2
2022-10-10T10:21:16.645Z,0.2
2022-10-10T10:22:27.007Z,0.2
2022-10-10T10:23:34.080Z,0.3
2022-10-10T10:24:43.831Z,0.1
2022-10-10T10:25:53.551Z,0.1
2022-10-10T10:27:02.252Z,0.2
2022-10-10T10:28:11.060Z,0.2
2022-10-10T10:29:18.656Z,0.4
2022-10-10T10:30:28.360Z,0.1
2022-10-10T10:31:41.291Z,0.2
2022-10-10T10:32:47.812Z,0.2
2022-10-10T10:33:57.672Z,0.4
2022-10-10T10:35:06.375Z,0.1
2022-10-10T10:36:14.060Z,0.4
2022-10-10T10:37:23.800Z,0.5
2022-10-10T10:38:31.417Z,0.2
2022-10-10T10:39:40.125Z,0.3
2022-10-10T10:40:49.923Z,0.3
2022-10-10T10:41:58.743Z,0.2
2022-10-10T10:43:08.425Z,0.3
2022-10-10T10:44:17.128Z,0.3
2022-10-10T10:45:25.821Z,0.2
2022-10-10T10:46:35.618Z,0.2
2022-10-10T10:47:44.340Z,0.2
2022-10-10T10:48:53.038Z,0.2
2022-10-10T10:50:02.735Z,0.3
2022-10-10T10:51:10.420Z,0.3
2022-10-10T10:52:19.172Z,0.2
2022-10-10T10:53:28.905Z,0.4
2022-10-10T10:54:40.317Z,0.1
2022-10-10T10:55:47.222Z,0.1
2022-10-10T10:57:01.920Z,0.1
2022-10-10T10:58:49.050Z,0.2
2022-10-10T10:59:38.807Z,0.2
2022-10-10T11:01:57.903Z,0.2
2022-10-10T11:02:59.440Z,0.1
2022-10-10T11:05:21.501Z,0.2
2022-10-10T11:05:21.619Z,0.1
2022-10-10T11:06:22.874Z,0.1
2022-10-10T11:07:32.534Z,0.1
2022-10-10T11:08:42.249Z,0.4
2022-10-10T11:09:51.979Z,0.1
2022-10-10T11:11:02.001Z,0.2
2022-10-10T11:12:10.291Z,0.4
2022-10-10T11:13:19.980Z,0.2
2022-10-10T11:14:28.723Z,0.1
2022-10-10T11:16:01.730Z,0.3
2022-10-10T11:16:49.602Z,0.2
2022-10-10T11:17:57.978Z,0.2
2022-10-10T11:19:07.730Z,0.4
2022-10-10T11:20:17.472Z,0.2
2022-10-10T11:21:26.252Z,0.2
2022-10-10T11:22:35.955Z,0.1
2022-10-10T11:23:45.675Z,0.2
2022-10-10T11:24:55.362Z,0.3
2022-10-10T11:26:05.082Z,0.3
2022-10-10T11:27:12.783Z,0.1
2022-10-10T11:28:21.521Z,0.1
2022-10-10T11:29:31.175Z,0.2
2022-10-10T11:30:39.882Z,0.3
2022-10-10T11:31:49.571Z,0.3
2022-10-10T11:32:59.269Z,0.1
2022-10-10T11:34:08.006Z,0.3
2022-10-10T11:35:17.745Z,0.2
2022-10-10T11:36:26.458Z,0.3
2022-10-10T11:37:34.184Z,0.3
2022-10-10T11:38:43.941Z,0.1
2022-10-10T11:39:53.691Z,0.3
2022-10-10T11:41:01.465Z,0.1
2022-10-10T11:42:10.216Z,0.1
2022-10-10T11:43:17.912Z,0.3
2022-10-10T11:44:27.816Z,0.2
2022-10-10T11:45:36.568Z,0.3
2022-10-10T11:46:46.264Z,0.2
2022-10-10T11:47:55.959Z,0.2
2022-10-10T11:49:05.668Z,0
2022-10-10T11:50:15.398Z,0.2
2022-10-10T11:51:25.134Z,0.2
2022-10-10T11:52:35.200Z,0.2
2022-10-10T11:53:44.654Z,0.3
2022-10-10T11:54:54.385Z,0.1
2022-10-10T11:56:04.388Z,0.5
2022-10-10T11:57:13.807Z,0.2
2022-10-10T11:58:22.569Z,0.2
2022-10-10T11:59:32.291Z,0.1
2022-10-10T12:00:41.985Z,0.4
2022-10-10T12:01:49.869Z,0.2
2022-10-10T12:02:59.563Z,0.1
2022-10-10T12:04:09.256Z,0.1
2022-10-10T12:05:17.962Z,0.2
2022-10-10T12:06:27.722Z,0.5
2022-10-10T12:07:35.489Z,0.2
2022-10-10T12:08:45.166Z,0.1
2022-10-10T12:09:53.851Z,0.2
2022-10-10T12:11:02.625Z,0.4
2022-10-10T12:12:12.373Z,0.2
2022-10-10T12:13:20.061Z,0.1
2022-10-10T12:14:29.795Z,0.1
2022-10-10T12:15:42.702Z,0.2
2022-10-10T12:16:50.181Z,0.1
2022-10-10T12:17:59.875Z,0.1
2022-10-10T12:19:09.755Z,0.1
2022-10-10T12:20:17.460Z,0.1
2022-10-10T12:21:27.166Z,0.4
2022-10-10T12:22:36.899Z,0.2
2022-10-10T12:23:46.587Z,0.2
2022-10-10T12:24:56.346Z,0.3
2022-10-10T12:26:05.104Z,0.2
2022-10-10T12:27:14.846Z,0.2
2022-10-10T12:28:24.668Z,0.2
2022-10-10T12:29:33.364Z,0.2
2022-10-10T12:30:43.077Z,0.4
2022-10-10T12:31:51.779Z,0.2
2022-10-10T12:33:00.495Z,0.1
2022-10-10T12:34:10.203Z,0.4
2022-10-10T12:35:18.984Z,0.2
2022-10-10T12:36:28.777Z,0.3
2022-10-10T12:37:37.517Z,0.4
2022-10-10T12:38:46.206Z,0.2
2022-10-10T12:39:56.020Z,0.4
2022-10-10T12:41:04.817Z,0.1
2022-10-10T12:42:13.510Z,0.2
2022-10-10T12:43:23.283Z,0.3
2022-10-10T12:44:33.001Z,0.2
2022-10-10T12:45:42.767Z,0.4
2022-10-10T12:46:52.470Z,0.4
2022-10-10T12:48:06.549Z,0.5
2022-10-10T12:49:12.925Z,0.2
2022-10-10T12:50:19.632Z,0.3
2022-10-10T12:51:29.349Z,0.5
2022-10-10T12:52:37.046Z,0.7
2022-10-10T12:53:45.766Z,0.4
2022-10-10T12:54:55.503Z,0.5
2022-10-10T12:56:03.263Z,0.6
2022-10-10T12:57:13.092Z,0.4
2022-10-10T12:58:26.876Z,0.2
2022-10-10T12:59:31.503Z,0.1
2022-10-10T13:00:41.193Z,0.2
2022-10-10T13:01:49.970Z,0.3
2022-10-10T13:02:58.612Z,0.2
2022-10-10T13:04:08.478Z,0.4
2022-10-10T13:05:17.263Z,0.2
2022-10-10T13:06:26.973Z,0.2
2022-10-10T13:07:35.671Z,0.3
2022-10-10T13:08:45.389Z,0.3
2022-10-10T13:09:55.127Z,0.5
2022-10-10T13:11:03.327Z,0.3
2022-10-10T13:12:11.643Z,0.3
2022-10-10T13:13:21.414Z,0.4
2022-10-10T13:14:30.125Z,0.3
2022-10-10T13:15:39.875Z,0.5
2022-10-10T13:16:49.563Z,0.2
2022-10-10T13:17:58.505Z,0.2
2022-10-10T13:19:07.251Z,0.1
2022-10-10T13:20:16.976Z,0.1
2022-10-10T13:21:25.698Z,0.2
2022-10-10T13:22:35.463Z,0.2
2022-10-10T13:23:43.224Z,0.3
2022-10-10T13:24:52.934Z,0.3
2022-10-10T13:26:01.709Z,0.2
2022-10-10T13:27:09.423Z,0.5
2022-10-10T13:28:19.358Z,0.2
2022-10-10T13:29:26.995Z,0.3
2022-10-10T13:30:35.742Z,0.4
2022-10-10T13:31:45.475Z,0.4
2022-10-10T13:32:55.195Z,0.3
2022-10-10T13:34:04.921Z,0.5
2022-10-10T13:35:14.662Z,0.2
2022-10-10T13:36:24.386Z,0.3
2022-10-10T13:37:34.111Z,0.3
2022-10-10T13:38:42.795Z,0.2
2022-10-10T13:39:53.534Z,0.3
2022-10-10T13:41:03.594Z,0.3
2022-10-10T13:42:10.985Z,0.3
2022-10-10T13:43:20.703Z,0.4
2022-10-10T13:44:29.376Z,0.2
2022-10-10T13:45:38.200Z,0.4
2022-10-10T13:46:47.906Z,0.2
2022-10-10T13:47:57.671Z,0.3
2022-10-10T13:49:07.413Z,0.3
2022-10-10T13:50:17.212Z,0.2
2022-10-10T13:51:24.962Z,0.3
2022-10-10T13:52:34.724Z,0.4
2022-10-10T13:53:44.503Z,0.3
2022-10-10T13:54:53.172Z,0.2
2022-10-10T13:56:02.872Z,0.3
2022-10-10T13:57:11.636Z,0.2
2022-10-10T13:58:21.406Z,0.4
2022-10-10T13:59:31.133Z,0.3
2022-10-10T14:00:39.882Z,0.3
2022-10-10T14:01:49.817Z,0.2
2022-10-10T14:02:59.495Z,0.3
2022-10-10T14:04:08.261Z,0.2
2022-10-10T14:05:17.941Z,0.3
2022-10-10T14:06:26.651Z,0.3
2022-10-10T14:07:36.500Z,0.2
2022-10-10T14:08:46.436Z,0.3
2022-10-10T14:09:56.113Z,0.3
2022-10-10T14:11:06.256Z,0.2
2022-10-10T14:12:13.569Z,0.3
2022-10-10T14:13:22.257Z,0.3
2022-10-10T14:14:32.138Z,0.2
2022-10-10T14:15:39.877Z,0.4
2022-10-10T14:16:49.581Z,0.4
2022-10-10T14:17:59.303Z,0.2
2022-10-10T14:19:08.028Z,0.3
2022-10-10T14:20:17.767Z,0.1
2022-10-10T14:21:26.491Z,0.7
2022-10-10T14:22:36.251Z,0.2
2022-10-10T14:23:46.911Z,0.4
2022-10-10T14:24:54.594Z,0.4
2022-10-10T14:26:03.342Z,0.4
2022-10-10T14:27:13.060Z,0.5
2022-10-10T14:28:23.796Z,0.2
2022-10-10T14:29:33.620Z,0.3
2022-10-10T14:30:42.272Z,0.2
2022-10-10T14:31:50.985Z,0.1
2022-10-10T14:33:01.720Z,0.3
2022-10-10T14:34:11.453Z,0.3
2022-10-10T14:35:20.260Z,0.4
2022-10-10T14:36:29.991Z,0.4
2022-10-10T14:37:39.714Z,0.5
2022-10-10T14:38:49.425Z,0.4
2022-10-10T14:39:59.128Z,0.4
2022-10-10T14:41:07.324Z,0.4
2022-10-10T14:42:16.580Z,0.4
2022-10-10T14:43:24.378Z,0.5
2022-10-10T14:44:33.190Z,0.2
2022-10-10T14:45:42.877Z,0.5
2022-10-10T14:46:50.559Z,0.4
2022-10-10T14:48:00.259Z,0.2
2022-10-10T14:49:13.082Z,0.4
2022-10-10T14:50:20.695Z,0.4
2022-10-10T14:51:33.395Z,0.4
2022-10-10T14:52:41.179Z,0.4
2022-10-10T14:54:10.070Z,0.2
2022-10-10T14:55:01.584Z,0.4
2022-10-10T14:56:11.285Z,0.6
2022-10-10T14:57:20.984Z,0.3
2022-10-10T14:58:28.672Z,0.4
2022-10-10T14:59:46.553Z,0.4
2022-10-10T15:00:49.125Z,0.2
2022-10-10T15:01:57.841Z,0.4
2022-10-10T15:03:07.611Z,0.3
2022-10-10T15:04:16.273Z,0.3
2022-10-10T15:05:24.967Z,0.2
2022-10-10T15:06:45.501Z,0.3
2022-10-10T15:07:44.377Z,0.3
2022-10-10T15:08:54.054Z,0.3
2022-10-10T15:11:14.499Z,0.3
2022-10-10T15:12:24.362Z,0.5
2022-10-10T15:13:33.090Z,0.3
2022-10-10T15:14:41.849Z,0.2
2022-10-10T15:15:51.611Z,0.1
2022-10-10T15:17:00.353Z,0.3
2022-10-10T15:18:26.956Z,0.2
2022-10-10T15:19:20.828Z,0.3
2022-10-10T15:20:29.543Z,0.2
2022-10-10T15:21:39.336Z,0.2
2022-10-10T15:22:47.030Z,0.4
2022-10-10T15:23:55.770Z,0.5
2022-10-10T15:25:05.513Z,0.4
2022-10-10T15:26:13.311Z,0.3
2022-10-10T15:27:23.201Z,0.3
2022-10-10T15:28:31.932Z,0.3
2022-10-10T15:29:40.662Z,0.4
2022-10-10T15:30:50.427Z,0.3
2022-10-10T15:31:59.117Z,0.3
2022-10-10T15:33:08.803Z,0.4
2022-10-10T15:34:18.565Z,0.3
2022-10-10T15:35:36.187Z,0.6
2022-10-10T15:36:38.128Z,0.3
2022-10-10T15:37:47.905Z,0.3
2022-10-10T15:38:57.636Z,0.3
2022-10-10T15:40:07.404Z,0.3
2022-10-10T15:41:15.169Z,0.5
2022-10-10T15:42:23.903Z,0.3
2022-10-10T15:43:33.683Z,0.3
2022-10-10T15:44:41.426Z,0.3
2022-10-10T15:45:55.739Z,0.3
2022-10-10T15:47:01.924Z,0.2
2022-10-10T15:48:10.638Z,0.3
2022-10-10T15:49:20.322Z,0.4
2022-10-10T15:50:30.039Z,0.2
2022-10-10T15:51:38.762Z,0.2
2022-10-10T15:52:48.564Z,0.4
2022-10-10T15:53:58.286Z,0.3
2022-10-10T15:55:08.029Z,0.5
2022-10-10T15:56:17.731Z,0.6
2022-10-10T15:57:25.574Z,0.4
2022-10-10T15:58:35.395Z,0.5
2022-10-10T15:59:45.106Z,0.3